Time;durP1;ratioP1;P1;durP2;ratioP2;P2;SDS_P1;SDS_P2;PMS_P1;PMS_P2;Temp;Humidity;BMP_temperature;BMP_pressure;BME280_temperature;BME280_humidity;BME280_pressure;Samples;Min_cycle;Max_cycle;Signal;HPM_P1;HPM_P2
2022/08/25 00:02:19;;;;;;;9.07;5.67;;;;;;;-145.18;100.00;46660.41;5051479;28;20045;-74
2022/08/25 00:04:45;;;;;;;7.70;6.23;;;;;;;-145.18;100.00;46660.41;5052543;28;20044;-74
2022/08/25 00:07:11;;;;;;;8.47;6.70;;;;;;;-145.18;100.00;46660.41;5051777;28;20041;-74
2022/08/25 00:09:36;;;;;;;7.23;6.33;;;;;;;-145.18;100.00;46660.41;5052091;28;20075;-75
2022/08/25 00:12:04;;;;;;;9.37;6.20;;;;;;;-145.18;100.00;46660.41;5051518;28;20025;-75
2022/08/25 00:14:35;;;;;;;6.90;6.27;;;;;;;-145.18;100.00;46660.41;5052086;28;20021;-75
2022/08/25 00:17:01;;;;;;;7.37;6.07;;;;;;;-145.18;100.00;46660.41;5051509;28;20029;-75
2022/08/25 00:19:30;;;;;;;10.40;7.00;;;;;;;-145.18;100.00;46660.41;5052163;28;20033;-75
2022/08/25 00:21:56;;;;;;;7.60;6.53;;;;;;;-145.18;100.00;46660.41;5051684;28;20291;-75
2022/08/25 00:24:23;;;;;;;9.63;7.07;;;;;;;-145.18;100.00;46660.41;5051639;28;20440;-74
2022/08/25 00:26:52;;;;;;;8.73;7.30;;;;;;;-145.18;100.00;46660.41;5051521;28;20036;-75
2022/08/25 00:29:19;;;;;;;8.90;6.27;;;;;;;-145.18;100.00;46660.41;5051251;28;20037;-75
2022/08/25 00:31:45;;;;;;;12.17;6.93;;;;;;;-145.18;100.00;46660.41;5051647;28;20036;-74
2022/08/25 00:34:18;;;;;;;8.33;6.53;;;;;;;-145.18;100.00;46660.41;5051199;28;20120;-74
2022/08/25 00:36:45;;;;;;;7.33;6.50;;;;;;;-145.18;100.00;46660.41;5051525;28;20040;-74
2022/08/25 00:39:11;;;;;;;6.77;6.03;;;;;;;-145.18;100.00;46660.41;5050976;28;20512;-74
2022/08/25 00:41:39;;;;;;;8.30;6.60;;;;;;;-145.18;100.00;46660.41;5051027;28;20155;-74
2022/08/25 00:44:07;;;;;;;9.03;6.73;;;;;;;-145.18;100.00;46660.41;5051316;28;20040;-75
2022/08/25 00:46:45;;;;;;;8.73;7.17;;;;;;;-145.18;100.00;46660.41;5051237;28;20482;-74
2022/08/25 00:49:36;;;;;;;9.70;7.43;;;;;;;-145.18;100.00;46660.41;5051235;28;20029;-76
2022/08/25 00:52:15;;;;;;;7.90;7.10;;;;;;;-145.18;100.00;46660.41;5050737;28;20056;-76
2022/08/25 00:54:49;;;;;;;14.63;7.53;;;;;;;-145.18;100.00;46660.41;5051094;28;20104;-76
2022/08/25 00:57:20;;;;;;;8.00;7.30;;;;;;;-145.18;100.00;46660.41;5050343;28;20059;-76
2022/08/25 00:59:45;;;;;;;10.20;7.67;;;;;;;-145.18;100.00;46660.41;5051163;28;20493;-75
2022/08/25 01:02:13;;;;;;;9.50;7.20;;;;;;;-145.18;100.00;46660.41;5050445;28;20083;-75
2022/08/25 01:04:38;;;;;;;8.50;7.60;;;;;;;-145.18;100.00;46660.41;5051252;28;20043;-75
2022/08/25 01:07:04;;;;;;;10.77;7.93;;;;;;;-145.18;100.00;46660.41;5050540;28;20484;-74
2022/08/25 01:09:31;;;;;;;8.60;7.70;;;;;;;-145.18;100.00;46660.41;5050870;28;20040;-75
2022/08/25 01:11:57;;;;;;;12.23;8.07;;;;;;;-145.18;100.00;46660.41;5050613;28;20551;-75
2022/08/25 01:14:24;;;;;;;10.13;8.50;;;;;;;-145.18;100.00;46660.41;5050645;28;20374;-75
2022/08/25 01:16:49;;;;;;;14.57;8.83;;;;;;;-145.18;100.00;46660.41;5050756;28;20055;-75
2022/08/25 01:19:15;;;;;;;11.57;9.37;;;;;;;-145.18;100.00;46660.41;5050411;28;20028;-76
2022/08/25 01:21:44;;;;;;;9.87;8.80;;;;;;;-145.18;100.00;46660.41;5050619;28;20025;-75
2022/08/25 01:24:14;;;;;;;9.70;8.67;;;;;;;-145.18;100.00;46660.41;5050325;28;20029;-76
2022/08/25 01:26:40;;;;;;;10.70;9.20;;;;;;;-145.18;100.00;46660.41;5050482;28;20425;-75
2022/08/25 01:29:20;;;;;;;10.57;9.10;;;;;;;-145.18;100.00;46660.41;5050454;28;20094;-76
2022/08/25 01:31:47;;;;;;;12.53;9.20;;;;;;;-145.18;100.00;46660.41;5050592;28;20126;-75
2022/08/25 01:34:13;;;;;;;11.97;9.30;;;;;;;-145.18;100.00;46660.41;5050213;28;20466;-76
2022/08/25 01:36:40;;;;;;;11.90;9.60;;;;;;;-145.18;100.00;46660.41;5050600;28;20035;-76
2022/08/25 01:39:06;;;;;;;9.80;8.63;;;;;;;-145.18;100.00;46660.41;5050226;28;20040;-76
2022/08/25 01:41:43;;;;;;;10.67;8.10;;;;;;;-145.18;100.00;46660.41;5050312;28;20040;-75
2022/08/25 01:44:08;;;;;;;10.73;9.43;;;;;;;-145.18;100.00;46660.41;5050345;28;20056;-75
2022/08/25 01:46:34;;;;;;;9.87;8.63;;;;;;;-145.18;100.00;46660.41;5050104;28;20064;-75
2022/08/25 01:49:01;;;;;;;10.57;9.27;;;;;;;-145.18;100.00;46660.41;5050495;28;20029;-75
2022/08/25 01:51:31;;;;;;;12.13;8.50;;;;;;;-145.18;100.00;46660.41;5050324;28;20048;-75
2022/08/25 01:53:57;;;;;;;13.27;8.70;;;;;;;-145.18;100.00;46660.41;5050103;28;20039;-75
2022/08/25 01:56:22;;;;;;;11.10;9.13;;;;;;;-145.18;100.00;46660.41;5050224;28;20033;-76
2022/08/25 01:58:48;;;;;;;9.50;8.60;;;;;;;-145.18;100.00;46660.41;5050066;28;20029;-75
2022/08/25 02:03:49;;;;;;;13.03;9.07;;;;;;;-145.18;100.00;46660.41;5000925;23;20046;-75
2022/08/25 02:06:19;;;;;;;11.47;8.40;;;;;;;-145.18;100.00;46660.41;4996267;28;20049;-75
2022/08/25 02:08:45;;;;;;;12.30;9.60;;;;;;;-145.18;100.00;46660.41;5002961;28;20040;-75
2022/08/25 02:11:12;;;;;;;11.73;9.27;;;;;;;-145.18;100.00;46660.41;4983449;28;20042;-75
2022/08/25 02:13:39;;;;;;;10.77;9.50;;;;;;;-145.18;100.00;46660.41;5009524;28;20178;-75
2022/08/25 02:16:05;;;;;;;12.10;9.17;;;;;;;-145.18;100.00;46660.41;5002702;28;20307;-75
2022/08/25 02:18:31;;;;;;;10.63;9.63;;;;;;;-145.18;100.00;46660.41;5010398;28;20629;-75
2022/08/25 02:20:56;;;;;;;13.67;9.07;;;;;;;-145.18;100.00;46660.41;5010191;28;20521;-74
2022/08/25 02:23:22;;;;;;;10.50;9.07;;;;;;;-145.18;100.00;46660.41;5010186;28;20038;-74
2022/08/25 02:25:47;;;;;;;9.80;8.80;;;;;;;-145.18;100.00;46660.41;5006767;28;20044;-74
2022/08/25 02:28:13;;;;;;;12.70;9.63;;;;;;;-145.18;100.00;46660.41;5009993;28;20069;-74
2022/08/25 02:30:41;;;;;;;10.27;9.27;;;;;;;-145.18;100.00;46660.41;4992663;28;20470;-74
2022/08/25 02:33:07;;;;;;;13.30;9.33;;;;;;;-145.18;100.00;46660.41;5010063;28;20493;-75
2022/08/25 02:35:33;;;;;;;10.67;9.53;;;;;;;-145.18;100.00;46660.41;5010113;28;20076;-74
2022/08/25 02:37:58;;;;;;;12.30;9.67;;;;;;;-145.18;100.00;46660.41;5009716;28;20068;-75
2022/08/25 02:40:23;;;;;;;14.07;9.67;;;;;;;-145.18;100.00;46660.41;5010002;28;20072;-74
2022/08/25 02:42:50;;;;;;;13.30;10.00;;;;;;;-145.18;100.00;46660.41;5009628;28;20466;-74
2022/08/25 02:45:17;;;;;;;10.67;9.57;;;;;;;-145.18;100.00;46660.41;5009983;28;20033;-74
2022/08/25 02:47:43;;;;;;;14.10;9.90;;;;;;;-145.18;100.00;46660.41;5009845;28;20037;-74
2022/08/25 02:50:09;;;;;;;13.10;10.30;;;;;;;-145.18;100.00;46660.41;5010111;28;20037;-74
2022/08/25 02:52:34;;;;;;;11.80;10.70;;;;;;;-145.18;100.00;46660.41;5009721;28;20397;-74
2022/08/25 02:55:04;;;;;;;11.90;9.87;;;;;;;-145.18;100.00;46660.41;5009546;28;20470;-74
2022/08/25 02:57:30;;;;;;;17.43;10.03;;;;;;;-145.18;100.00;46660.41;5009922;28;20030;-74
2022/08/25 02:59:57;;;;;;;16.20;11.03;;;;;;;-145.18;100.00;46660.41;5009601;28;20037;-74
2022/08/25 03:02:23;;;;;;;14.93;10.30;;;;;;;-145.18;100.00;46660.41;5009358;28;20065;-74
2022/08/25 03:04:50;;;;;;;15.93;10.40;;;;;;;-145.18;100.00;46660.41;5009712;28;20058;-74
2022/08/25 03:07:16;;;;;;;14.77;10.90;;;;;;;-145.18;100.00;46660.41;5009665;28;20068;-74
2022/08/25 03:09:42;;;;;;;11.97;9.90;;;;;;;-145.18;100.00;46660.41;5009769;28;20057;-74
2022/08/25 03:12:08;;;;;;;12.90;11.27;;;;;;;-145.18;100.00;46679.94;5009513;28;20038;-74
2022/08/25 03:14:33;;;;;;;10.87;9.70;;;;;;;-145.18;100.00;46642.81;5009822;28;20126;-73
2022/08/25 03:16:59;;;;;;;13.37;11.03;;;;;;;-145.18;100.00;46679.94;5008981;28;20117;-74
2022/08/25 03:19:24;;;;;;;12.03;10.70;;;;;;;-145.18;100.00;46660.41;5007204;28;20114;-74
2022/08/25 03:21:51;;;;;;;13.20;11.07;;;;;;;-145.18;100.00;46644.78;5010276;28;20117;-75
2022/08/25 03:24:16;;;;;;;13.60;10.57;;;;;;;-145.18;100.00;46660.41;5013308;28;20034;-74
2022/08/25 03:26:57;;;;;;;11.93;10.60;;;;;;;-145.18;100.00;46679.94;5009379;28;20070;-75
2022/08/25 03:29:26;;;;;;;12.60;11.17;;;;;;;-145.18;100.00;46679.94;5012555;28;20033;-74
2022/08/25 03:31:53;;;;;;;12.97;11.63;;;;;;;-145.18;100.00;46677.97;5012737;28;20049;-75
2022/08/25 03:34:20;;;;;;;12.07;10.80;;;;;;;-145.18;100.00;46642.81;5013402;28;20046;-74
2022/08/25 03:36:51;;;;;;;18.67;12.57;;;;;;;-145.18;100.00;46660.41;5011878;28;20431;-74
2022/08/25 03:39:19;;;;;;;14.17;10.93;;;;;;;-145.18;100.00;46679.94;5012762;28;20116;-74
2022/08/25 03:41:46;;;;;;;13.40;11.53;;;;;;;-145.18;100.00;46642.81;5012915;28;20040;-75
2022/08/25 03:44:12;;;;;;;14.43;12.23;;;;;;;-145.18;100.00;46677.97;5012599;28;20041;-74
2022/08/25 03:46:42;;;;;;;13.77;12.37;;;;;;;-145.18;100.00;46679.94;5012962;28;20037;-75
2022/08/25 03:49:11;;;;;;;15.27;12.57;;;;;;;-145.18;100.00;46679.94;5012798;28;20041;-75
2022/08/25 03:51:41;;;;;;;15.97;12.00;;;;;;;-145.18;100.00;46660.41;5011969;28;20034;-75
2022/08/25 03:54:09;;;;;;;14.63;13.13;;;;;;;-145.18;100.00;46644.78;5012652;28;20046;-75
2022/08/25 03:56:34;;;;;;;14.63;11.93;;;;;;;-145.18;100.00;46642.81;5012645;28;20037;-74
2022/08/25 03:59:00;;;;;;;16.73;12.77;;;;;;;-145.18;100.00;46644.78;5012285;28;20189;-75
2022/08/25 04:01:26;;;;;;;14.20;12.70;;;;;;;-145.18;100.00;46660.41;5004810;28;20422;-74
2022/08/25 04:03:51;;;;;;;16.20;12.47;;;;;;;-145.18;100.00;46679.94;4998711;28;20085;-74
2022/08/25 04:06:18;;;;;;;15.07;13.47;;;;;;;-145.18;100.00;46660.41;4997650;28;20066;-74
2022/08/25 04:08:44;;;;;;;14.93;12.53;;;;;;;-145.18;100.00;46679.94;4976817;28;20428;-74
2022/08/25 04:11:16;;;;;;;19.70;13.17;;;;;;;-145.18;100.00;46660.41;4992943;28;20092;-74
2022/08/25 04:13:44;;;;;;;16.13;13.03;;;;;;;-145.18;100.00;46681.88;4992319;28;20030;-74
2022/08/25 04:16:12;;;;;;;19.43;13.43;;;;;;;-145.18;100.00;46644.78;4993424;28;20029;-74
2022/08/25 04:18:39;;;;;;;14.43;12.03;;;;;;;-145.18;100.00;46679.94;4992770;28;20037;-75
2022/08/25 04:21:08;;;;;;;18.23;12.67;;;;;;;-145.18;100.00;46642.81;4974838;28;20161;-74
2022/08/25 04:23:35;;;;;;;18.50;13.00;;;;;;;-145.18;100.00;46679.94;4992575;28;20418;-74
2022/08/25 04:26:00;;;;;;;18.53;12.33;;;;;;;-145.18;100.00;46644.78;4992495;28;20046;-75
2022/08/25 04:28:26;;;;;;;15.00;12.40;;;;;;;-145.18;100.00;46679.94;4992545;28;20034;-74
2022/08/25 04:30:51;;;;;;;14.20;11.77;;;;;;;-145.18;100.00;46648.69;4991502;28;20045;-75
2022/08/25 04:33:16;;;;;;;15.23;12.10;;;;;;;-145.18;100.00;46646.72;4974943;28;20113;-75
2022/08/25 04:35:47;;;;;;;15.37;12.70;;;;;;;-145.18;100.00;46648.69;4989682;28;20042;-75
2022/08/25 04:38:13;;;;;;;17.27;12.00;;;;;;;-145.18;100.00;46646.72;4991374;28;20030;-76
2022/08/25 04:40:38;;;;;;;21.17;14.00;;;;;;;-145.18;100.00;46642.81;4990149;28;20088;-75
2022/08/25 04:43:03;;;;;;;22.70;13.07;;;;;;;-145.18;100.00;46644.78;4989449;28;20038;-75
2022/08/25 04:45:29;;;;;;;16.97;13.63;;;;;;;-145.18;100.00;46642.81;4987399;28;20077;-75
2022/08/25 04:47:59;;;;;;;18.00;11.80;;;;;;;-145.18;100.00;46646.72;4995072;28;20708;-75
2022/08/25 04:50:25;;;;;;;16.67;12.57;;;;;;;-145.18;100.00;46644.78;4992825;28;20521;-75
2022/08/25 04:52:50;;;;;;;16.63;13.63;;;;;;;-145.18;100.00;46648.69;5009920;28;20054;-75
2022/08/25 04:55:17;;;;;;;20.87;12.13;;;;;;;-145.18;100.00;46648.69;5010978;28;20034;-75
2022/08/25 04:57:42;;;;;;;13.57;12.17;;;;;;;-145.18;100.00;46644.78;5010519;28;20650;-75
2022/08/25 05:00:08;;;;;;;18.47;12.77;;;;;;;-145.18;100.00;46642.81;5010985;28;20026;-75
2022/08/25 05:02:35;;;;;;;14.57;12.23;;;;;;;-145.18;100.00;46644.78;4993046;28;20053;-74
2022/08/25 05:05:02;;;;;;;14.37;12.90;;;;;;;-145.18;100.00;46642.81;4993756;28;20026;-75
2022/08/25 05:07:27;;;;;;;15.63;12.47;;;;;;;-145.18;100.00;46644.78;5011237;28;20084;-75
2022/08/25 05:09:52;;;;;;;16.33;12.00;;;;;;;-145.18;100.00;46646.72;5011082;28;20033;-74
2022/08/25 05:12:19;;;;;;;18.57;11.87;;;;;;;-145.18;100.00;46646.72;5011337;28;20034;-75
2022/08/25 05:14:44;;;;;;;17.50;11.53;;;;;;;-145.18;100.00;46642.81;5009008;28;20120;-74
2022/08/25 05:17:10;;;;;;;17.03;11.27;;;;;;;-145.18;100.00;46650.63;5010936;28;20125;-74
2022/08/25 05:19:35;;;;;;;16.57;11.70;;;;;;;-145.18;100.00;46644.78;5010823;28;20076;-74
2022/08/25 05:22:00;;;;;;;15.90;11.20;;;;;;;-145.18;100.00;46648.69;5009530;28;20062;-74
2022/08/25 05:24:26;;;;;;;13.47;11.57;;;;;;;-145.18;100.00;46644.78;5006847;28;20446;-74
2022/08/25 05:26:52;;;;;;;13.97;11.87;;;;;;;-145.18;100.00;46650.63;5009667;28;20033;-74
2022/08/25 05:29:18;;;;;;;23.17;11.30;;;;;;;-145.18;100.00;46652.59;5010300;28;20029;-74
2022/08/25 05:31:44;;;;;;;16.37;11.70;;;;;;;-145.18;100.00;46650.63;5010052;28;20064;-74
2022/08/25 05:34:09;;;;;;;12.70;11.40;;;;;;;-145.18;100.00;46658.44;5010522;28;20482;-74
2022/08/25 05:36:35;;;;;;;14.57;11.30;;;;;;;-145.18;100.00;46656.50;5008858;28;20030;-74
2022/08/25 05:39:00;;;;;;;20.47;10.33;;;;;;;-145.18;100.00;46664.31;5009340;28;20221;-74
2022/08/25 05:41:29;;;;;;;17.00;12.13;;;;;;;-145.18;100.00;46668.22;5009557;28;20034;-74
2022/08/25 05:43:55;;;;;;;16.20;11.33;;;;;;;-145.18;100.00;46668.22;5007994;28;20045;-74
2022/08/25 05:46:21;;;;;;;15.30;11.07;;;;;;;-145.18;100.00;46668.22;5010580;28;20034;-74
2022/08/25 05:48:47;;;;;;;12.67;10.40;;;;;;;-145.18;100.00;46670.16;5010321;28;20482;-74
2022/08/25 05:51:13;;;;;;;13.73;10.37;;;;;;;-145.18;100.00;46668.22;4992200;28;20561;-74
2022/08/25 05:53:42;;;;;;;14.07;10.63;;;;;;;-145.18;100.00;46670.16;4990325;28;20035;-74
2022/08/25 05:56:08;;;;;;;14.07;9.67;;;;;;;-145.18;100.00;46672.13;5009728;28;20441;-75
2022/08/25 05:58:35;;;;;;;18.37;9.70;;;;;;;-145.18;100.00;46672.13;5010130;28;20497;-74
2022/08/25 06:03:46;;;;;;;16.07;9.50;;;;;;;-145.18;100.00;46674.06;5008201;28;20056;-74
2022/08/25 06:06:12;;;;;;;13.07;9.27;;;;;;;-145.18;100.00;46674.06;5002685;28;20030;-74
2022/08/25 06:08:37;;;;;;;16.60;8.90;;;;;;;-145.18;100.00;46672.13;4996304;28;20029;-74
2022/08/25 06:11:02;;;;;;;11.83;9.03;;;;;;;-145.18;100.00;46672.13;5007285;28;20034;-75
2022/08/25 06:13:29;;;;;;;14.90;9.63;;;;;;;-145.18;100.00;46658.44;5008903;28;20441;-74
2022/08/25 06:15:58;;;;;;;13.20;8.73;;;;;;;-145.18;100.00;46660.41;5009018;28;20038;-75
2022/08/25 06:18:23;;;;;;;10.60;8.37;;;;;;;-145.18;100.00;46623.28;5009401;28;20485;-74
2022/08/25 06:20:49;;;;;;;17.07;8.10;;;;;;;-145.18;100.00;46566.63;5010148;28;20033;-74
2022/08/25 06:23:17;;;;;;;12.13;8.17;;;;;;;-145.18;100.00;46560.78;5008583;28;20574;-74
2022/08/25 06:25:48;;;;;;;15.37;8.07;;;;;;;-145.18;100.00;46551.00;5007769;28;20022;-74
2022/08/25 06:28:13;;;;;;;13.63;8.53;;;;;;;-145.18;100.00;46547.09;5008945;28;20026;-74
2022/08/25 06:30:39;;;;;;;9.83;6.80;;;;;;;-145.18;100.00;46547.09;4992555;28;20105;-74
2022/08/25 06:33:04;;;;;;;9.70;7.80;;;;;;;-145.18;100.00;46554.91;5009595;28;20112;-74
2022/08/25 06:35:29;;;;;;;10.90;7.20;;;;;;;-145.18;100.00;46545.16;5010273;28;20064;-74
2022/08/25 06:37:55;;;;;;;15.20;7.57;;;;;;;-145.18;100.00;46554.91;5009210;28;20106;-74
2022/08/25 06:40:21;;;;;;;8.87;6.87;;;;;;;-145.18;100.00;46551.00;5009924;28;20038;-75
2022/08/25 06:42:48;;;;;;;11.87;6.53;;;;;;;-145.18;100.00;46547.09;5006594;28;20030;-74
2022/08/25 06:45:13;;;;;;;16.67;6.67;;;;;;;-145.18;100.00;46549.06;4992390;28;20038;-74
2022/08/25 06:47:39;;;;;;;14.73;7.30;;;;;;;-145.18;100.00;46537.34;5009462;28;20525;-74
2022/08/25 06:50:04;;;;;;;9.23;6.20;;;;;;;-145.18;100.00;46547.09;5009936;28;20038;-75
2022/08/25 06:52:30;;;;;;;13.70;6.00;;;;;;;-145.18;100.00;46543.19;5009702;28;20057;-74
2022/08/25 06:54:56;;;;;;;15.53;6.47;;;;;;;-145.18;100.00;46541.25;5012318;28;20034;-74
2022/08/25 06:57:21;;;;;;;18.97;5.60;;;;;;;-145.18;100.00;46549.06;5013808;28;20112;-74
2022/08/25 06:59:46;;;;;;;10.13;5.77;;;;;;;-145.18;100.00;46549.06;5004924;28;20742;-74
2022/08/25 07:02:12;;;;;;;15.17;6.20;;;;;;;-145.18;100.00;46552.97;4993640;28;20797;-74
2022/08/25 07:04:37;;;;;;;14.23;5.60;;;;;;;-145.18;100.00;46578.34;5000953;28;20050;-75
2022/08/25 07:07:03;;;;;;;10.27;4.83;;;;;;;-145.18;100.00;46568.59;4994117;28;20113;-74
2022/08/25 07:09:29;;;;;;;13.07;4.67;;;;;;;-145.18;100.00;46552.97;4993769;28;20069;-74
2022/08/25 07:11:55;;;;;;;15.77;5.30;;;;;;;-145.18;100.00;46597.88;4993837;28;20037;-74
2022/08/25 07:14:21;;;;;;;10.93;4.60;;;;;;;-145.18;100.00;46586.16;4993716;28;20683;-75
2022/08/25 07:16:46;;;;;;;8.23;4.67;;;;;;;-145.18;100.00;46597.88;4993733;28;20113;-75
2022/08/25 07:19:13;;;;;;;7.77;4.33;;;;;;;-145.18;100.00;46609.59;5000263;28;20103;-76
2022/08/25 07:21:40;;;;;;;8.63;3.90;;;;;;;-145.18;100.00;46586.16;5011165;28;20069;-75
2022/08/25 07:24:11;;;;;;;8.67;4.00;;;;;;;-145.18;100.00;46615.47;4999837;28;20039;-75
2022/08/25 07:26:39;;;;;;;11.17;4.17;;;;;;;-145.18;100.00;46664.31;4994159;28;20041;-75
2022/08/25 07:29:27;;;;;;;9.23;4.00;;;;;;;-145.18;100.00;46623.28;4993125;28;20061;-75
2022/08/25 07:31:52;;;;;;;7.97;4.10;;;;;;;-145.18;100.00;46789.31;4993488;28;20037;-75
2022/08/25 07:37:03;;;;;;;10.20;4.20;;;;;;;-145.18;100.00;47064.75;4993721;28;20506;-75
2022/08/25 07:39:29;;;;;;;7.88;4.07;;;;;;;-145.18;100.00;46963.19;4993067;28;20023;-75
2022/08/25 07:41:55;;;;;;;11.48;3.80;;;;;;;-145.18;100.00;47154.63;4993587;28;20046;-77
2022/08/25 07:44:22;;;;;;;12.13;4.57;;;;;;;-145.18;100.00;47142.91;4993591;28;20045;-75
2022/08/25 07:46:49;;;;;;;16.45;4.47;;;;;;;-145.18;100.00;47144.84;4993367;28;20037;-75
2022/08/25 07:49:14;;;;;;;15.43;4.43;;;;;;;-145.18;100.00;47101.88;4992933;28;20034;-75
2022/08/25 07:51:39;;;;;;;6.00;4.00;;;;;;;-145.18;100.00;47140.94;4993311;28;20049;-75
2022/08/25 07:54:05;;;;;;;9.70;3.83;;;;;;;-145.18;100.00;47140.94;4993103;28;20034;-75
2022/08/25 07:56:31;;;;;;;10.95;4.65;;;;;;;-145.18;100.00;47094.06;4993841;28;20076;-75
2022/08/25 07:58:56;;;;;;;14.05;4.50;;;;;;;-145.18;100.00;47068.66;4975121;28;20038;-76
2022/08/25 08:01:23;;;;;;;11.82;3.70;;;;;;;-145.18;100.00;47097.97;4992898;28;20042;-76
2022/08/25 08:03:49;;;;;;;16.27;5.05;;;;;;;-145.18;100.00;47055.00;4975471;28;20055;-76
2022/08/25 08:06:17;;;;;;;9.85;3.80;;;;;;;-145.18;100.00;47043.28;4972719;28;20066;-76
2022/08/25 08:08:45;;;;;;;10.55;4.15;;;;;;;-145.18;100.00;47051.09;4973133;28;20035;-76
2022/08/25 08:11:25;;;;;;;8.20;4.00;;;;;;;-145.18;100.00;47017.88;4973567;28;20039;-76
2022/08/25 08:13:53;;;;;;;7.15;3.92;;;;;;;-145.18;100.00;47015.91;4972803;28;20049;-76
2022/08/25 08:16:20;;;;;;;10.68;4.40;;;;;;;-145.18;100.00;47010.06;4973517;28;20031;-76
2022/08/25 08:18:46;;;;;;;10.07;4.30;;;;;;;-145.18;100.00;47013.97;4972908;28;20041;-76
2022/08/25 08:21:14;;;;;;;12.15;4.35;;;;;;;-145.18;100.00;47013.97;4973269;28;20034;-76
2022/08/25 08:23:40;;;;;;;8.07;3.60;;;;;;;-145.18;100.00;47004.19;4972813;28;20026;-76
2022/08/25 08:26:05;;;;;;;10.60;3.95;;;;;;;-145.18;100.00;46992.47;4973415;28;20034;-76
2022/08/25 08:28:31;;;;;;;7.25;3.45;;;;;;;-145.18;100.00;46990.53;4972831;28;20618;-75
2022/08/25 08:30:56;;;;;;;6.13;3.65;;;;;;;-145.18;100.00;46980.75;4973220;28;20039;-76
2022/08/25 08:33:23;;;;;;;10.60;3.38;;;;;;;-145.18;100.00;46980.75;4972651;28;20050;-76
2022/08/25 08:35:56;;;;;;;6.88;3.72;;;;;;;-145.18;100.00;46969.03;4973074;28;20135;-76
2022/08/25 08:38:21;;;;;;;10.15;4.05;;;;;;;-145.18;100.00;46969.03;4972736;28;20022;-76
2022/08/25 08:44:08;;;;;;;7.78;3.30;;;;;;;-145.18;100.00;46969.03;4972481;28;20050;-76
2022/08/25 08:46:44;;;;;;;9.93;3.30;;;;;;;-145.18;100.00;46957.31;4972946;28;20562;-76
2022/08/25 08:49:28;;;;;;;5.25;3.40;;;;;;;-145.18;100.00;46953.41;4972564;28;20105;-76
2022/08/25 08:51:59;;;;;;;7.50;3.27;;;;;;;-145.18;100.00;46951.44;4972857;28;20045;-76
2022/08/25 08:54:30;;;;;;;7.85;3.17;;;;;;;-145.18;100.00;46953.41;4972376;28;20292;-76
2022/08/25 08:57:10;;;;;;;10.30;3.15;;;;;;;-145.18;100.00;46959.25;4972661;28;20034;-76
2022/08/25 09:00:04;;;;;;;7.90;3.33;;;;;;;-145.18;100.00;46953.41;4972058;28;20041;-76
2022/08/25 09:02:41;;;;;;;5.35;3.15;;;;;;;-145.18;100.00;46941.69;4976041;28;20065;-76
2022/08/25 09:05:11;;;;;;;9.43;2.90;;;;;;;-145.18;100.00;46935.81;4991597;28;20030;-76
2022/08/25 09:07:47;;;;;;;9.85;3.50;;;;;;;-145.18;100.00;46931.91;4991709;28;20026;-75
2022/08/25 09:10:15;;;;;;;10.07;3.10;;;;;;;-145.18;100.00;46929.97;4991715;28;20574;-76
2022/08/25 09:12:53;;;;;;;8.50;2.92;;;;;;;-145.18;100.00;46928.00;4991858;28;20101;-76
2022/08/25 09:18:56;;;;;;;5.95;3.00;;;;;;;-145.18;100.00;46916.28;4991106;28;20402;-76
2022/08/25 09:21:47;;;;;;;9.60;2.63;;;;;;;-145.18;100.00;46906.53;4991896;28;20049;-76
2022/08/25 09:24:27;;;;;;;5.90;2.60;;;;;;;-145.18;100.00;46904.56;4991210;28;20078;-75
2022/08/25 09:27:08;;;;;;;9.50;2.75;;;;;;;-145.18;99.68;46906.53;4991401;28;20407;-75
2022/08/25 09:30:03;;;;;;;7.72;2.50;;;;;;;-145.18;99.76;46910.44;4991426;28;20510;-76
2022/08/25 09:32:32;;;;;;;6.93;2.78;;;;;;;-145.18;99.07;46902.63;4974834;28;20045;-75
2022/08/25 09:35:00;;;;;;;8.63;2.95;;;;;;;-145.18;97.86;46894.81;4990300;28;20026;-75
2022/08/25 09:37:26;;;;;;;8.63;3.20;;;;;;;-145.18;97.97;46892.84;4992017;28;20062;-75
2022/08/25 09:39:51;;;;;;;6.78;2.47;;;;;;;-145.18;100.00;46910.44;4991061;28;20121;-75
2022/08/25 09:42:19;;;;;;;11.38;2.80;;;;;;;-145.18;96.25;46906.53;4991507;28;20034;-75
2022/08/25 09:44:45;;;;;;;4.15;2.42;;;;;;;-145.18;100.00;46894.81;4990939;28;20387;-75
2022/08/25 09:47:16;;;;;;;7.05;2.40;;;;;;;-145.18;98.44;46906.53;4991653;28;20034;-75
2022/08/25 09:49:42;;;;;;;7.25;2.50;;;;;;;-145.18;96.51;46910.44;4991100;28;20023;-75
2022/08/25 09:52:31;;;;;;;6.43;2.80;;;;;;;-145.18;99.88;46906.53;4991013;28;20034;-75
2022/08/25 09:55:22;;;;;;;7.28;2.50;;;;;;;-145.18;95.60;46904.56;4990813;28;20121;-75
2022/08/25 09:57:49;;;;;;;6.38;2.58;;;;;;;-145.18;100.00;46912.38;4991296;28;20664;-75
2022/08/25 10:00:22;;;;;;;7.65;2.90;;;;;;;-145.18;94.96;46904.56;4990627;28;20046;-75
2022/08/25 10:03:19;;;;;;;5.20;2.60;;;;;;;-145.18;96.10;46906.53;4990600;28;20050;-75
2022/08/25 10:06:13;;;;;;;4.95;2.20;;;;;;;-145.18;93.87;46926.06;4991135;28;20049;-75
2022/08/25 10:08:41;;;;;;;5.40;2.60;;;;;;;-145.18;96.19;46912.38;4990626;28;20411;-75
2022/08/25 10:11:14;;;;;;;8.55;3.40;;;;;;;-145.18;96.31;46910.44;4990797;28;20026;-74
2022/08/25 10:13:46;;;;;;;3.33;2.20;;;;;;;-145.18;100.00;46916.28;4990452;28;20046;-75
2022/08/25 10:16:23;;;;;;;8.57;2.83;;;;;;;-145.18;97.53;46926.06;4990856;28;20505;-75
2022/08/25 10:19:09;;;;;;;7.43;2.63;;;;;;;-145.18;96.91;46918.25;4990742;28;20066;-75
2022/08/25 10:21:37;;;;;;;8.73;2.65;;;;;;;-145.18;99.22;46918.25;4990656;28;20050;-75
2022/08/25 10:24:04;;;;;;;8.82;2.40;;;;;;;-145.18;100.00;46926.06;4990252;28;20023;-75
2022/08/25 10:26:44;;;;;;;10.82;2.30;;;;;;;-145.18;100.00;46929.97;4990936;28;20040;-75
2022/08/25 10:29:46;;;;;;;6.80;2.80;;;;;;;-145.18;100.00;46916.28;4990068;28;20034;-75
2022/08/25 10:32:20;;;;;;;8.23;2.28;;;;;;;-145.18;100.00;46908.47;4990943;28;20383;-75
2022/08/25 10:34:53;;;;;;;5.93;2.53;;;;;;;-145.18;100.00;46908.47;4990372;28;20070;-75
2022/08/25 10:37:41;;;;;;;6.97;2.63;;;;;;;-145.18;99.74;46883.09;4990932;28;20406;-75
2022/08/25 10:40:12;;;;;;;11.00;2.80;;;;;;;-145.18;92.99;46875.28;4990121;28;20035;-75
2022/08/25 10:42:56;;;;;;;4.18;2.42;;;;;;;-145.18;93.14;46863.53;4990512;28;20034;-74
2022/08/25 10:45:41;;;;;;;3.97;2.58;;;;;;;-145.18;79.56;46855.72;4990155;28;20030;-74
2022/08/25 10:48:30;;;;;;;7.75;2.75;;;;;;;-145.18;79.12;46853.78;4990580;28;20050;-74
2022/08/25 10:51:30;;;;;;;5.57;2.63;;;;;;;-145.18;79.24;46838.16;4990122;28;20041;-75
2022/08/25 10:54:24;;;;;;;6.18;2.40;;;;;;;-145.18;73.71;46836.19;4989733;28;20066;-75
2022/08/25 10:57:18;;;;;;;5.35;2.17;;;;;;;-145.18;74.63;46834.25;4982760;28;20471;-75
2022/08/25 10:59:58;;;;;;;8.48;2.40;;;;;;;-145.18;72.89;46826.44;4990193;28;20038;-74
2022/08/25 11:03:01;;;;;;;8.35;2.60;;;;;;;-145.18;68.81;46826.44;4989715;28;20078;-75
2022/08/25 11:05:36;;;;;;;7.80;2.28;;;;;;;-145.18;68.61;46824.47;4990238;28;20450;-74
2022/08/25 11:08:23;;;;;;;6.55;2.42;;;;;;;-145.18;70.67;46830.34;4990117;28;20030;-75
2022/08/25 11:10:58;;;;;;;6.75;2.33;;;;;;;-145.18;67.97;46824.47;4989806;28;20110;-74
2022/08/25 11:13:43;;;;;;;8.18;2.20;;;;;;;-145.18;64.63;46820.56;4989835;28;20018;-74
2022/08/25 11:16:24;;;;;;;6.90;2.50;;;;;;;-145.18;64.31;46820.56;4990232;28;20073;-74
2022/08/25 11:19:08;;;;;;;4.35;2.15;;;;;;;-145.18;61.23;46812.75;4989832;28;20077;-75
2022/08/25 11:22:03;;;;;;;6.90;2.13;;;;;;;-145.18;58.13;46816.66;4990346;28;20121;-74
2022/08/25 11:24:35;;;;;;;3.03;1.90;;;;;;;-145.18;54.73;46814.72;4989780;28;20058;-74
2022/08/25 11:27:05;;;;;;;7.85;2.40;;;;;;;-145.18;53.82;46818.63;4990183;28;20529;-73
2022/08/25 11:29:35;;;;;;;7.25;2.40;;;;;;;-145.18;55.47;46816.66;4989606;28;20081;-73
2022/08/25 11:32:02;;;;;;;6.68;2.85;;;;;;;-145.18;56.90;46824.47;4989851;28;20562;-73